Time;durP1;ratioP1;P1;durP2;ratioP2;P2;SDS_P1;SDS_P2;PMS_P1;PMS_P2;Temp;Humidity;BMP_temperature;BMP_pressure;BME280_temperature;BME280_humidity;BME280_pressure;Samples;Min_cycle;Max_cycle;Signal;HPM_P1;HPM_P2
2021/08/22 00:01:53;;;;;;;4.53;3.20;;;;;;;16.96;100.00;100027.66;4980804;28;20316;-69
2021/08/22 00:04:19;;;;;;;3.65;3.05;;;;;;;16.90;100.00;100016.56;4997832;28;20081;-69
2021/08/22 00:06:46;;;;;;;7.40;3.17;;;;;;;16.96;100.00;100021.41;4996585;28;20050;-69
2021/08/22 00:09:13;;;;;;;4.75;3.42;;;;;;;16.96;100.00;100011.47;4996401;28;20439;-69
2021/08/22 00:11:40;;;;;;;4.45;3.50;;;;;;;16.95;100.00;100011.63;4997977;28;20042;-70
2021/08/22 00:14:07;;;;;;;4.05;3.65;;;;;;;17.05;100.00;100025.16;4997623;28;20047;-69
2021/08/22 00:16:33;;;;;;;5.70;3.95;;;;;;;17.01;100.00;100010.22;4997392;28;20046;-69
2021/08/22 00:19:00;;;;;;;5.45;4.13;;;;;;;17.01;100.00;100019.16;4997487;28;20474;-69
2021/08/22 00:21:27;;;;;;;6.68;4.45;;;;;;;17.01;100.00;100018.28;5009566;28;20046;-69
2021/08/22 00:23:54;;;;;;;5.45;4.43;;;;;;;17.07;100.00;100018.63;5014869;28;20050;-69
2021/08/22 00:26:20;;;;;;;7.00;4.90;;;;;;;17.13;100.00;100016.34;5017115;28;20386;-68
2021/08/22 00:28:47;;;;;;;6.72;5.53;;;;;;;17.16;100.00;100016.94;5016819;28;20042;-69
2021/08/22 00:31:14;;;;;;;9.20;6.30;;;;;;;17.18;100.00;100017.66;5015794;28;20048;-69
2021/08/22 00:33:41;;;;;;;12.27;7.22;;;;;;;17.22;100.00;100027.16;4999545;28;20066;-68
2021/08/22 00:36:08;;;;;;;8.82;7.55;;;;;;;17.26;100.00;100022.34;5015608;28;20038;-69
2021/08/22 00:38:35;;;;;;;10.35;7.78;;;;;;;17.31;100.00;100020.06;5015427;28;20049;-70
2021/08/22 00:41:02;;;;;;;9.57;7.65;;;;;;;17.33;100.00;100011.84;5016646;28;20095;-70
2021/08/22 00:43:29;;;;;;;14.52;8.75;;;;;;;17.22;100.00;100002.03;5016537;28;20055;-68
2021/08/22 00:45:58;;;;;;;10.38;8.98;;;;;;;17.30;100.00;100006.72;5015699;28;20104;-68
2021/08/22 00:48:28;;;;;;;13.88;9.55;;;;;;;17.40;100.00;100022.91;5016455;28;20168;-69
2021/08/22 00:50:56;;;;;;;12.47;9.07;;;;;;;17.36;100.00;100014.25;5016467;28;20117;-68
2021/08/22 00:53:22;;;;;;;10.73;9.30;;;;;;;17.45;100.00;100021.50;5015129;28;20407;-68
2021/08/22 00:55:50;;;;;;;14.45;9.75;;;;;;;17.46;100.00;100022.34;5016374;28;20045;-69
2021/08/22 00:58:17;;;;;;;12.43;10.10;;;;;;;17.43;100.00;100017.25;5015591;28;20042;-69
2021/08/22 01:00:46;;;;;;;13.85;9.95;;;;;;;17.40;100.00;100023.78;5016118;28;20108;-70
2021/08/22 01:03:19;;;;;;;16.23;10.60;;;;;;;17.33;100.00;100009.97;5016286;28;20046;-69
2021/08/22 01:05:55;;;;;;;12.27;10.98;;;;;;;17.38;100.00;100025.78;5016520;28;20133;-69
2021/08/22 01:08:25;;;;;;;13.70;10.48;;;;;;;17.38;100.00;100025.78;5015932;28;20057;-69
2021/08/22 01:11:02;;;;;;;15.77;11.15;;;;;;;17.39;100.00;100032.88;5016208;28;20061;-70
2021/08/22 01:13:35;;;;;;;13.90;12.05;;;;;;;17.29;100.00;100021.19;5016159;28;20045;-68
2021/08/22 01:16:05;;;;;;;15.98;11.85;;;;;;;17.29;100.00;100022.06;5016154;28;20057;-69
2021/08/22 01:18:34;;;;;;;14.55;12.13;;;;;;;17.33;100.00;100028.03;5014933;28;20072;-68
2021/08/22 01:21:05;;;;;;;20.20;13.15;;;;;;;17.35;100.00;100031.44;5015734;28;20052;-68
2021/08/22 01:23:35;;;;;;;;;;;;;;;17.34;100.00;100032.44;5016246;28;20684;-69
2021/08/22 01:26:05;;;;;;;18.60;12.50;;;;;;;17.33;100.00;100030.72;5015997;28;19926;-70
2021/08/22 01:28:32;;;;;;;14.50;13.00;;;;;;;17.28;100.00;100032.97;5015811;28;20092;-70
2021/08/22 01:31:03;;;;;;;16.13;13.68;;;;;;;17.24;100.00;100041.38;5015826;28;20092;-69
2021/08/22 01:33:31;;;;;;;14.40;12.88;;;;;;;17.24;100.00;100029.72;5031249;28;20427;-70
2021/08/22 01:36:00;;;;;;;15.65;13.65;;;;;;;17.26;100.00;100038.50;5015959;28;20053;-70
2021/08/22 01:38:28;;;;;;;19.98;14.48;;;;;;;17.22;100.00;100035.25;5015672;28;20048;-68
2021/08/22 01:40:57;;;;;;;18.77;14.48;;;;;;;17.17;100.00;100040.19;5015716;28;20437;-68
2021/08/22 01:43:24;;;;;;;15.80;13.52;;;;;;;17.14;100.00;100040.50;5014925;28;20046;-70
2021/08/22 01:45:55;;;;;;;16.00;12.98;;;;;;;17.14;100.00;100062.06;5014608;28;20092;-69
2021/08/22 01:48:22;;;;;;;;;;;;;;;17.10;100.00;100049.84;5016069;28;20073;-70
2021/08/22 01:50:52;;;;;;;16.70;13.55;;;;;;;17.07;100.00;100044.75;5015528;28;19944;-70
2021/08/22 01:53:19;;;;;;;16.52;14.70;;;;;;;17.10;100.00;100053.41;4998633;28;20057;-70
2021/08/22 01:55:46;;;;;;;17.95;14.55;;;;;;;17.14;100.00;100059.38;5014386;28;20404;-69
2021/08/22 01:58:14;;;;;;;19.95;15.20;;;;;;;17.12;100.00;100053.28;5015390;28;20045;-69
2021/08/22 02:00:41;;;;;;;20.38;14.88;;;;;;;17.13;100.00;100054.09;5015083;28;20046;-69
2021/08/22 02:03:17;;;;;;;22.55;15.50;;;;;;;17.12;100.00;100052.41;5015373;28;20416;-68
2021/08/22 02:05:51;;;;;;;19.27;14.98;;;;;;;17.10;100.00;100053.41;5015764;28;20347;-69
2021/08/22 02:08:22;;;;;;;22.65;15.13;;;;;;;17.09;100.00;100054.41;5015200;28;20056;-70
2021/08/22 02:11:00;;;;;;;20.05;15.82;;;;;;;17.08;100.00;100051.84;5021990;28;20339;-69
2021/08/22 02:13:33;;;;;;;20.55;16.08;;;;;;;17.08;100.00;100039.22;5020891;28;20367;-68
2021/08/22 02:16:03;;;;;;;27.55;18.40;;;;;;;16.96;100.00;100051.91;5021795;28;20067;-69
2021/08/22 02:18:31;;;;;;;20.48;16.95;;;;;;;16.95;100.00;100042.13;5020761;28;20049;-69
2021/08/22 02:20:58;;;;;;;25.38;18.55;;;;;;;16.99;100.00;100063.44;5020647;28;20073;-69
2021/08/22 02:23:25;;;;;;;22.80;18.17;;;;;;;16.97;100.00;100050.94;5020750;28;20169;-69
2021/08/22 02:25:52;;;;;;;25.63;19.85;;;;;;;16.95;100.00;100055.59;5037129;28;20137;-67
2021/08/22 02:28:20;;;;;;;25.55;19.98;;;;;;;16.88;100.00;100050.91;5021494;28;20042;-69
2021/08/22 02:30:50;;;;;;;26.52;20.17;;;;;;;16.88;100.00;100061.69;5021609;28;20049;-69
2021/08/22 02:33:17;;;;;;;26.40;19.95;;;;;;;16.87;100.00;100055.44;5020681;28;20509;-68
2021/08/22 02:35:44;;;;;;;25.70;20.48;;;;;;;16.86;100.00;100053.75;5021183;28;20038;-69
2021/08/22 02:38:11;;;;;;;24.20;19.88;;;;;;;16.88;100.00;100051.75;5020131;28;20046;-68
2021/08/22 02:40:37;;;;;;;25.98;18.80;;;;;;;16.88;100.00;100049.06;5020643;28;20431;-69
2021/08/22 02:43:04;;;;;;;23.10;17.90;;;;;;;16.87;100.00;100055.44;5021826;28;20044;-68
2021/08/22 02:45:32;;;;;;;25.65;17.80;;;;;;;16.86;100.00;100055.56;5020801;28;20049;-69
2021/08/22 02:48:00;;;;;;;22.58;17.52;;;;;;;16.84;100.00;100055.72;5020518;28;20050;-67
2021/08/22 02:50:28;;;;;;;21.30;18.13;;;;;;;16.76;100.00;100042.94;5020450;28;20423;-69
2021/08/22 02:52:56;;;;;;;22.58;16.98;;;;;;;16.77;100.00;100052.72;5021541;28;20058;-67
2021/08/22 02:55:23;;;;;;;28.52;17.45;;;;;;;16.61;100.00;100028.97;5021541;28;20054;-68
2021/08/22 02:57:49;;;;;;;20.23;17.05;;;;;;;16.80;100.00;100055.16;5020469;28;20057;-68
2021/08/22 03:00:16;;;;;;;20.50;16.50;;;;;;;16.76;100.00;100058.22;5021187;28;20084;-68
2021/08/22 03:02:44;;;;;;;21.38;16.55;;;;;;;16.74;100.00;100055.69;5021380;28;20351;-69
2021/08/22 03:05:11;;;;;;;24.23;16.98;;;;;;;16.69;100.00;100052.56;5021228;28;20056;-69
2021/08/22 03:07:37;;;;;;;22.27;17.63;;;;;;;16.60;100.00;100067.69;5036787;28;20431;-68
2021/08/22 03:10:05;;;;;;;24.48;17.55;;;;;;;16.55;100.00;100053.75;5021201;28;20049;-67
2021/08/22 03:12:31;;;;;;;23.75;17.48;;;;;;;16.61;100.00;100066.69;5020276;28;20045;-69
2021/08/22 03:14:58;;;;;;;23.30;17.25;;;;;;;16.62;100.00;100064.88;5020587;28;20041;-70
2021/08/22 03:17:25;;;;;;;24.77;17.17;;;;;;;16.60;100.00;100065.00;5020367;28;20046;-69
2021/08/22 03:19:53;;;;;;;27.90;16.77;;;;;;;16.50;100.00;100067.63;5019061;28;20053;-68
2021/08/22 03:22:20;;;;;;;18.70;15.55;;;;;;;16.54;100.00;100070.91;5018102;28;20327;-68
2021/08/22 03:24:47;;;;;;;23.35;16.02;;;;;;;16.50;100.00;100058.72;5018159;28;20451;-69
2021/08/22 03:27:14;;;;;;;23.45;15.85;;;;;;;16.55;100.00;100064.53;5018163;28;20064;-70
2021/08/22 03:29:40;;;;;;;22.42;15.55;;;;;;;16.55;100.00;100059.16;5017203;28;20049;-70
2021/08/22 03:32:08;;;;;;;20.52;15.82;;;;;;;16.56;100.00;100059.03;5018144;28;20065;-69
2021/08/22 03:34:35;;;;;;;21.75;16.17;;;;;;;16.60;100.00;100056.06;5016789;28;20105;-70
2021/08/22 03:37:02;;;;;;;22.58;17.75;;;;;;;16.58;100.00;100058.03;5016816;28;20054;-69
2021/08/22 03:39:28;;;;;;;24.00;16.30;;;;;;;16.61;100.00;100060.47;5016864;28;20050;-69
2021/08/22 03:41:55;;;;;;;23.02;16.77;;;;;;;16.56;100.00;100058.16;5017807;28;20045;-70
2021/08/22 03:44:23;;;;;;;22.85;16.05;;;;;;;16.62;100.00;100062.16;5017744;28;20057;-69
2021/08/22 03:46:52;;;;;;;23.70;16.83;;;;;;;16.54;100.00;100058.31;5017980;28;20044;-68
2021/08/22 03:49:20;;;;;;;25.75;18.20;;;;;;;16.60;100.00;100061.47;5017842;28;20056;-67
2021/08/22 03:51:50;;;;;;;25.92;18.17;;;;;;;16.53;100.00;100059.31;5016721;28;20439;-69
2021/08/22 03:54:18;;;;;;;28.70;17.92;;;;;;;16.52;100.00;100062.13;5017592;28;20109;-68
2021/08/22 03:56:47;;;;;;;24.15;18.52;;;;;;;16.56;100.00;100058.16;5017745;28;20042;-68
2021/08/22 03:59:15;;;;;;;28.30;18.90;;;;;;;16.48;100.00;100057.97;5017723;28;20054;-68
2021/08/22 04:01:43;;;;;;;25.00;19.20;;;;;;;16.50;100.00;100054.16;5017212;28;20048;-68
2021/08/22 04:04:23;;;;;;;27.02;19.73;;;;;;;16.50;100.00;100054.16;5018223;28;20058;-68
2021/08/22 04:06:50;;;;;;;27.83;20.15;;;;;;;16.51;100.00;100049.66;5016134;28;20050;-69
2021/08/22 04:09:18;;;;;;;28.02;18.77;;;;;;;16.50;100.00;100048.78;5016200;28;20053;-70
2021/08/22 04:11:46;;;;;;;25.70;18.52;;;;;;;16.52;100.00;100048.66;5017195;28;20088;-69
2021/08/22 04:14:14;;;;;;;25.88;18.52;;;;;;;16.48;100.00;100045.38;5017346;28;20046;-67
2021/08/22 04:16:41;;;;;;;24.17;18.25;;;;;;;16.53;100.00;100051.22;5015933;28;20379;-69
2021/08/22 04:19:08;;;;;;;26.55;18.30;;;;;;;16.47;100.00;100048.19;4999826;28;20058;-69
2021/08/22 04:21:35;;;;;;;21.67;16.40;;;;;;;16.45;100.00;100040.25;5017052;28;20386;-69
2021/08/22 04:24:03;;;;;;;21.58;16.35;;;;;;;16.51;100.00;100055.03;5032322;28;20042;-68
2021/08/22 04:26:30;;;;;;;22.75;16.65;;;;;;;16.51;100.00;100055.03;5016960;28;20219;-68
2021/08/22 04:28:57;;;;;;;22.73;16.55;;;;;;;16.48;100.00;100056.16;5016821;28;20067;-68
2021/08/22 04:31:24;;;;;;;24.67;16.45;;;;;;;16.52;100.00;100057.56;5015043;28;20053;-69
2021/08/22 04:33:50;;;;;;;22.90;15.63;;;;;;;16.51;100.00;100055.03;5016421;28;20144;-70
2021/08/22 04:36:17;;;;;;;25.42;17.17;;;;;;;16.53;100.00;100055.75;4999349;28;20050;-69
2021/08/22 04:38:44;;;;;;;22.30;15.45;;;;;;;16.48;100.00;100061.53;5015708;28;20096;-70
2021/08/22 04:41:21;;;;;;;24.67;16.08;;;;;;;16.36;100.00;100041.94;5016643;28;20045;-68
2021/08/22 04:43:52;;;;;;;20.50;15.65;;;;;;;16.49;100.00;100065.06;5016752;28;20048;-71
2021/08/22 04:46:20;;;;;;;24.30;15.25;;;;;;;16.45;100.00;100055.56;5016962;28;20054;-70
2021/08/22 04:48:48;;;;;;;21.08;14.20;;;;;;;16.48;100.00;100060.69;5015770;28;20092;-69
2021/08/22 04:51:15;;;;;;;25.88;15.38;;;;;;;16.43;100.00;100059.25;5015418;28;20052;-70
2021/08/22 04:53:41;;;;;;;23.48;15.15;;;;;;;16.43;100.00;100059.25;5016478;28;20072;-70
2021/08/22 04:56:08;;;;;;;20.02;14.43;;;;;;;16.41;100.00;100045.06;5016202;28;20112;-69
2021/08/22 04:58:36;;;;;;;23.95;13.80;;;;;;;16.50;100.00;100056.88;5015348;28;20054;-69
2021/08/22 05:01:03;;;;;;;20.42;13.55;;;;;;;16.53;100.00;100053.91;5012706;28;20118;-68
2021/08/22 05:03:31;;;;;;;18.95;13.52;;;;;;;16.34;100.00;100021.50;5015867;28;20042;-69
2021/08/22 05:05:58;;;;;;;18.75;12.82;;;;;;;16.52;100.00;100057.56;5009066;28;20048;-70
2021/08/22 05:08:25;;;;;;;21.02;13.80;;;;;;;16.49;100.00;100052.47;5016111;28;20439;-69
2021/08/22 05:10:55;;;;;;;19.27;13.23;;;;;;;16.60;100.00;100058.75;4997819;28;20065;-68
2021/08/22 05:13:23;;;;;;;21.05;13.90;;;;;;;16.55;100.00;100067.22;5016086;28;20497;-69
2021/08/22 05:15:54;;;;;;;19.92;13.45;;;;;;;16.59;100.00;100067.81;5014769;28;20050;-69
2021/08/22 05:18:22;;;;;;;21.90;14.43;;;;;;;16.43;100.00;100069.16;5013406;28;20052;-68
2021/08/22 05:20:49;;;;;;;21.40;14.52;;;;;;;16.36;100.00;100063.47;5011040;28;20048;-70
2021/08/22 05:23:17;;;;;;;21.95;14.88;;;;;;;16.29;100.00;100071.22;5014264;28;20049;-69
2021/08/22 05:25:44;;;;;;;22.83;15.10;;;;;;;16.25;100.00;100059.00;5030786;28;20115;-69
2021/08/22 05:28:10;;;;;;;20.20;15.25;;;;;;;16.27;100.00;100070.50;5015796;28;20474;-68
2021/08/22 05:30:37;;;;;;;21.50;15.88;;;;;;;16.18;100.00;100057.00;5031264;28;20053;-68
2021/08/22 05:33:04;;;;;;;24.05;15.50;;;;;;;16.25;100.00;100060.84;5015334;28;20104;-68
2021/08/22 05:35:31;;;;;;;20.80;13.52;;;;;;;16.14;100.00;100056.41;5047189;28;20431;-69
2021/08/22 05:37:58;;;;;;;18.88;14.02;;;;;;;16.19;100.00;100069.47;5011100;28;20042;-69
2021/08/22 05:40:25;;;;;;;19.27;14.50;;;;;;;16.21;100.00;100071.03;4995246;28;20054;-67
2021/08/22 05:42:52;;;;;;;18.90;12.77;;;;;;;16.18;100.00;100071.28;5006613;28;20038;-67
2021/08/22 05:45:19;;;;;;;17.65;11.93;;;;;;;16.23;100.00;100076.31;5012480;28;20038;-66
2021/08/22 05:47:46;;;;;;;21.33;12.73;;;;;;;16.22;100.00;100080.81;5005802;28;20057;-68
2021/08/22 05:50:13;;;;;;;20.92;13.65;;;;;;;16.20;100.00;100071.16;5013097;28;20435;-67
2021/08/22 05:52:40;;;;;;;18.75;13.00;;;;;;;16.17;100.00;100063.38;5013751;28;20044;-69
2021/08/22 05:55:09;;;;;;;18.55;13.30;;;;;;;16.27;100.00;100080.41;5037907;28;20045;-69
2021/08/22 05:57:36;;;;;;;19.88;13.55;;;;;;;16.32;100.00;100077.31;5015035;28;20045;-69
2021/08/22 06:00:05;;;;;;;21.67;13.77;;;;;;;16.34;100.00;100086.13;5015173;28;20116;-66
2021/08/22 06:02:38;;;;;;;22.05;14.65;;;;;;;16.35;100.00;100083.28;5013360;28;20435;-70
2021/08/22 06:05:06;;;;;;;21.08;13.75;;;;;;;16.36;100.00;100079.63;5014564;28;20415;-72
2021/08/22 06:07:33;;;;;;;20.48;13.73;;;;;;;16.38;100.00;100088.44;5014854;28;20054;-72
2021/08/22 06:10:00;;;;;;;19.52;14.27;;;;;;;16.38;100.00;100093.81;5014865;28;20054;-67
2021/08/22 06:12:27;;;;;;;23.20;15.50;;;;;;;16.45;100.00;100098.66;5013709;28;20050;-68
2021/08/22 06:14:54;;;;;;;21.75;15.05;;;;;;;16.47;100.00;100097.56;5012740;28;20129;-68
2021/08/22 06:17:20;;;;;;;21.17;15.75;;;;;;;16.51;100.00;100096.28;4999765;28;20440;-68
2021/08/22 06:19:47;;;;;;;20.83;14.68;;;;;;;16.58;100.00;100104.69;4998850;28;20041;-73
2021/08/22 06:22:14;;;;;;;21.90;16.08;;;;;;;16.56;100.00;100101.25;5002399;28;20030;-70
2021/08/22 06:24:41;;;;;;;22.35;15.05;;;;;;;16.66;100.00;100104.00;5006482;28;20048;-69
2021/08/22 06:27:08;;;;;;;21.08;15.45;;;;;;;16.75;100.00;100110.44;5020307;28;20097;-69
2021/08/22 06:29:34;;;;;;;24.48;14.68;;;;;;;16.74;100.00;100106.91;5000265;28;20097;-68
2021/08/22 06:32:02;;;;;;;16.70;14.00;;;;;;;16.75;100.00;100107.75;5002414;28;20026;-68
2021/08/22 06:34:29;;;;;;;17.15;13.35;;;;;;;16.79;100.00;100111.88;4997474;28;20054;-68
2021/08/22 06:36:56;;;;;;;20.10;13.82;;;;;;;16.76;100.00;100112.13;5005762;28;20042;-70
2021/08/22 06:39:22;;;;;;;20.08;14.48;;;;;;;16.73;100.00;100110.59;5005632;28;20054;-69
2021/08/22 06:41:49;;;;;;;15.10;12.52;;;;;;;16.88;100.00;100108.34;4997096;28;20697;-70
2021/08/22 06:44:16;;;;;;;20.50;13.88;;;;;;;16.89;100.00;100106.53;5009068;28;20128;-67
2021/08/22 06:46:43;;;;;;;18.13;13.02;;;;;;;16.89;100.00;100103.84;5010956;28;20076;-68
2021/08/22 06:49:10;;;;;;;18.20;12.55;;;;;;;16.86;100.00;100110.34;5005018;28;20046;-70
2021/08/22 06:51:37;;;;;;;16.17;12.32;;;;;;;16.88;100.00;100111.06;5002108;28;20046;-70
2021/08/22 06:54:04;;;;;;;15.55;11.45;;;;;;;16.78;100.00;100118.25;5011681;28;20046;-69
2021/08/22 06:56:31;;;;;;;16.52;12.07;;;;;;;16.84;100.00;100115.03;5002710;28;20046;-69
2021/08/22 06:58:58;;;;;;;16.73;10.82;;;;;;;16.78;100.00;100115.56;5006840;28;20097;-70
2021/08/22 07:01:25;;;;;;;16.25;11.10;;;;;;;16.96;100.00;100119.31;5013662;28;20068;-73
2021/08/22 07:03:52;;;;;;;18.40;12.23;;;;;;;16.91;100.00;100120.72;4999987;28;20401;-69
2021/08/22 07:06:19;;;;;;;17.48;10.63;;;;;;;16.94;100.00;100115.91;5005725;28;20070;-69
2021/08/22 07:08:46;;;;;;;17.27;11.82;;;;;;;16.99;100.00;100115.50;4998684;28;20046;-68
2021/08/22 07:11:13;;;;;;;16.08;13.00;;;;;;;17.01;100.00;100120.75;5025283;28;20108;-69
2021/08/22 07:13:40;;;;;;;15.25;12.35;;;;;;;17.01;100.00;100118.91;5004267;28;20608;-68
2021/08/22 07:16:07;;;;;;;21.77;12.63;;;;;;;16.97;100.00;100104.88;5001795;28;20053;-67
2021/08/22 07:18:34;;;;;;;18.05;13.18;;;;;;;17.03;100.00;100114.28;5010290;28;20427;-72
2021/08/22 07:21:03;;;;;;;18.17;13.20;;;;;;;17.07;100.00;100125.63;5011084;28;20043;-70
2021/08/22 07:23:30;;;;;;;16.40;12.95;;;;;;;17.11;100.00;100121.69;5003788;28;20041;-71
2021/08/22 07:25:57;;;;;;;19.65;12.52;;;;;;;17.14;100.00;100120.53;5008838;28;20049;-70
2021/08/22 07:28:24;;;;;;;14.95;12.35;;;;;;;17.14;100.00;100116.00;5004472;28;20057;-68
2021/08/22 07:30:51;;;;;;;14.68;11.85;;;;;;;17.17;100.00;100129.19;5006036;28;20354;-69
2021/08/22 07:33:20;;;;;;;14.68;11.27;;;;;;;17.22;100.00;100120.72;5010298;28;20053;-69
2021/08/22 07:35:46;;;;;;;15.65;11.90;;;;;;;17.23;100.00;100125.94;5006625;28;20049;-70
2021/08/22 07:38:13;;;;;;;16.27;11.48;;;;;;;17.28;100.00;100124.69;5008031;28;20034;-69
2021/08/22 07:40:40;;;;;;;14.52;10.25;;;;;;;17.23;100.00;100127.81;5012125;28;20046;-73
2021/08/22 07:43:07;;;;;;;13.57;10.30;;;;;;;17.21;100.00;100122.53;5006020;28;20399;-72
2021/08/22 07:45:34;;;;;;;17.02;10.07;;;;;;;17.19;100.00;100119.16;5008894;28;20049;-73
2021/08/22 07:48:01;;;;;;;14.82;10.73;;;;;;;17.27;100.00;100123.81;5016832;28;20050;-73
2021/08/22 07:50:27;;;;;;;14.75;9.00;;;;;;;17.32;100.00;100123.44;5014029;28;20050;-70
2021/08/22 07:52:54;;;;;;;12.82;8.82;;;;;;;17.29;100.00;100129.97;5015179;28;20394;-68
2021/08/22 07:55:22;;;;;;;11.75;8.68;;;;;;;17.29;100.00;100129.09;5008882;28;20046;-68
2021/08/22 07:57:48;;;;;;;11.68;7.70;;;;;;;17.33;100.00;100112.47;5015798;28;20045;-70
2021/08/22 08:00:16;;;;;;;9.88;7.10;;;;;;;17.36;100.00;100131.09;5016812;28;20157;-73
2021/08/22 08:02:43;;;;;;;13.15;7.68;;;;;;;17.39;100.00;100129.97;5014511;28;20331;-72
2021/08/22 08:05:10;;;;;;;10.43;7.28;;;;;;;17.44;100.00;100132.25;5016899;28;20050;-72
2021/08/22 08:07:37;;;;;;;12.95;7.50;;;;;;;17.43;100.00;100131.38;5015475;28;20045;-69
2021/08/22 08:10:08;;;;;;;11.13;7.13;;;;;;;17.36;100.00;100130.25;5007526;28;20057;-68
2021/08/22 08:12:35;;;;;;;11.05;6.88;;;;;;;17.36;100.00;100130.25;5012615;28;20080;-70
2021/08/22 08:15:03;;;;;;;10.00;6.65;;;;;;;17.36;100.00;100141.91;5007094;28;20042;-66
2021/08/22 08:17:32;;;;;;;11.60;6.43;;;;;;;17.38;100.00;100139.91;5003014;28;20462;-69
2021/08/22 08:19:59;;;;;;;13.07;6.10;;;;;;;17.36;100.00;100147.28;5008389;28;20041;-69
2021/08/22 08:22:26;;;;;;;11.80;5.75;;;;;;;17.45;100.00;100140.22;5014946;28;20045;-69
2021/08/22 08:24:53;;;;;;;8.98;5.50;;;;;;;17.55;100.00;100134.84;5015622;28;20095;-68
2021/08/22 08:27:20;;;;;;;9.43;5.28;;;;;;;17.55;100.00;100142.06;5008612;28;20037;-68
2021/08/22 08:29:47;;;;;;;9.00;5.00;;;;;;;17.56;100.00;100143.78;5007834;28;20046;-72
2021/08/22 08:32:13;;;;;;;11.20;5.18;;;;;;;17.58;98.88;100142.63;5003351;28;20046;-70
2021/08/22 08:34:40;;;;;;;10.98;5.40;;;;;;;17.59;97.88;100140.81;5000382;28;20046;-69
2021/08/22 08:37:07;;;;;;;11.30;4.85;;;;;;;17.51;98.44;100133.41;5015937;28;20505;-70
2021/08/22 08:39:34;;;;;;;12.18;4.95;;;;;;;17.59;98.44;100146.22;5027933;28;20057;-69
2021/08/22 08:42:17;;;;;;;11.80;5.22;;;;;;;17.70;95.73;100142.53;5014592;28;20058;-68
2021/08/22 08:44:44;;;;;;;7.55;4.80;;;;;;;17.64;96.73;100139.38;5016113;28;20088;-70
2021/08/22 08:47:14;;;;;;;7.85;5.28;;;;;;;17.70;97.48;100148.75;5011258;28;20097;-71
2021/08/22 08:50:04;;;;;;;7.10;5.20;;;;;;;17.67;96.82;100146.34;5010111;28;20038;-73
2021/08/22 08:53:01;;;;;;;9.05;5.10;;;;;;;17.85;94.85;100151.03;5008424;28;20092;-72
2021/08/22 08:55:47;;;;;;;7.82;4.65;;;;;;;17.76;90.22;100153.59;5008009;28;20348;-70
2021/08/22 08:58:14;;;;;;;8.45;4.45;;;;;;;17.92;92.46;100154.88;5015475;28;20042;-69
2021/08/22 09:00:46;;;;;;;8.55;3.90;;;;;;;17.99;87.69;100147.94;5007696;28;20498;-70
2021/08/22 09:03:14;;;;;;;8.38;4.05;;;;;;;18.21;89.17;100148.66;5004953;28;20061;-69
2021/08/22 09:06:03;;;;;;;10.98;4.70;;;;;;;18.25;88.96;100146.53;5011673;28;20044;-70
2021/08/22 09:08:54;;;;;;;6.30;4.03;;;;;;;18.50;86.91;100139.63;5012000;28;20054;-72
2021/08/22 09:12:08;;;;;;;9.00;4.10;;;;;;;18.64;85.26;100140.16;5009576;28;20046;-73
2021/08/22 09:14:56;;;;;;;6.63;3.67;;;;;;;18.64;83.95;100142.88;5001478;28;20489;-73
2021/08/22 09:18:01;;;;;;;10.60;4.55;;;;;;;18.69;84.50;100149.53;5011055;28;20089;-73
2021/08/22 09:21:03;;;;;;;6.85;3.72;;;;;;;18.69;83.18;100140.59;5013572;28;20034;-67
2021/08/22 09:24:23;;;;;;;8.57;3.80;;;;;;;18.64;83.79;100140.16;4991924;28;20057;-73
2021/08/22 09:27:09;;;;;;;10.90;4.35;;;;;;;18.61;83.87;100132.38;5001302;28;20038;-72
2021/08/22 09:30:13;;;;;;;7.22;3.95;;;;;;;18.79;82.41;100138.69;5013160;28;20049;-74
2021/08/22 09:33:18;;;;;;;11.80;3.85;;;;;;;18.94;83.12;100152.59;5009801;28;20045;-73
2021/08/22 09:36:22;;;;;;;11.95;3.95;;;;;;;18.90;79.53;100140.34;5011007;28;20494;-68
2021/08/22 09:39:26;;;;;;;11.23;3.88;;;;;;;18.61;79.90;100143.19;5009372;28;20068;-69
2021/08/22 09:42:31;;;;;;;11.07;4.05;;;;;;;18.42;81.90;100148.47;4995977;28;20065;-68
2021/08/22 09:45:35;;;;;;;10.70;4.53;;;;;;;18.42;82.27;100136.81;5011874;28;20502;-71
2021/08/22 09:48:39;;;;;;;8.07;4.35;;;;;;;18.49;81.73;100139.78;5011576;28;20042;-76
2021/08/22 09:51:43;;;;;;;8.18;4.38;;;;;;;18.56;82.49;100130.94;5012713;28;20427;-70
2021/08/22 09:54:28;;;;;;;11.07;4.30;;;;;;;18.56;82.17;100132.78;5011872;28;20037;-73
2021/08/22 09:57:28;;;;;;;10.93;4.40;;;;;;;18.45;84.43;100141.91;5011625;28;20469;-71
2021/08/22 10:00:13;;;;;;;12.60;4.38;;;;;;;18.47;84.03;100134.53;5025992;28;20050;-69
2021/08/22 10:03:04;;;;;;;10.00;3.75;;;;;;;18.53;82.93;100142.03;5011112;28;20378;-70
2021/08/22 10:05:50;;;;;;;7.28;3.45;;;;;;;18.66;82.38;100140.88;5007122;28;20046;-71
2021/08/22 10:08:47;;;;;;;9.82;3.83;;;;;;;18.65;79.91;100136.47;5010082;28;20060;-71
2021/08/22 10:11:26;;;;;;;7.15;3.35;;;;;;;18.74;81.21;100135.56;5010779;28;20053;-68
2021/08/22 10:13:53;;;;;;;6.10;3.65;;;;;;;18.90;81.05;100137.66;5042699;28;20046;-68
2021/08/22 10:16:36;;;;;;;8.02;3.78;;;;;;;19.08;80.20;100132.34;5016215;28;20038;-69
2021/08/22 10:19:05;;;;;;;6.13;3.47;;;;;;;18.98;80.13;100123.38;5017504;28;20042;-69
2021/08/22 10:21:33;;;;;;;8.98;3.88;;;;;;;19.36;80.27;100132.34;5011224;28;20279;-71
2021/08/22 10:24:05;;;;;;;12.25;4.53;;;;;;;19.52;78.24;100136.22;5012730;28;20327;-76
2021/08/22 10:26:46;;;;;;;8.77;3.97;;;;;;;19.41;79.69;100131.88;5012460;28;20064;-68
2021/08/22 10:29:21;;;;;;;9.63;4.30;;;;;;;19.33;78.69;100135.34;5011829;28;20113;-72
2021/08/22 10:31:54;;;;;;;10.00;3.80;;;;;;;19.39;77.72;100142.00;5015281;28;20340;-68
2021/08/22 10:34:31;;;;;;;10.30;4.22;;;;;;;19.64;76.28;100144.97;5016363;28;20042;-68
2021/08/22 10:36:58;;;;;;;7.35;3.70;;;;;;;19.70;76.00;100136.22;5014607;28;20046;-73
2021/08/22 10:39:27;;;;;;;11.45;3.60;;;;;;;19.71;75.36;100145.22;5014412;28;20097;-69
2021/08/22 10:41:54;;;;;;;9.83;3.50;;;;;;;19.82;75.79;100150.38;5012350;28;20096;-71
2021/08/22 10:44:33;;;;;;;9.43;3.20;;;;;;;19.63;76.08;100156.78;5015693;28;20041;-68
2021/08/22 10:47:05;;;;;;;10.30;3.28;;;;;;;19.52;77.70;100150.59;5009904;28;20088;-72
2021/08/22 10:49:50;;;;;;;7.60;3.50;;;;;;;19.73;78.42;100157.59;5015035;28;20056;-69
2021/08/22 10:52:22;;;;;;;9.38;3.63;;;;;;;19.72;76.71;100150.44;5016806;28;20062;-71
2021/08/22 10:55:14;;;;;;;6.38;3.13;;;;;;;19.66;75.37;100157.34;5000375;28;20125;-69
2021/08/22 10:57:44;;;;;;;10.93;3.63;;;;;;;19.51;76.01;100148.06;5015795;28;20096;-68
2021/08/22 11:00:35;;;;;;;9.87;3.40;;;;;;;19.46;76.47;100151.22;5015231;28;20038;-68
2021/08/22 11:03:17;;;;;;;9.63;3.03;;;;;;;19.34;77.09;100147.03;5016138;28;20060;-69
2021/08/22 11:05:46;;;;;;;7.35;3.45;;;;;;;19.13;78.26;100143.56;5014316;28;20506;-69
2021/08/22 11:08:14;;;;;;;9.18;3.70;;;;;;;19.04;78.37;100154.41;5015285;28;20072;-67
2021/08/22 11:10:58;;;;;;;9.30;3.30;;;;;;;19.25;77.81;100160.47;5013470;28;20046;-69
2021/08/22 11:13:27;;;;;;;6.43;2.70;;;;;;;19.41;75.50;100154.34;5014214;28;20112;-69
2021/08/22 11:15:53;;;;;;;3.85;2.80;;;;;;;19.70;75.70;100162.44;5011684;28;20065;-69
2021/08/22 11:18:20;;;;;;;4.55;2.40;;;;;;;19.61;74.28;100161.53;5001046;28;20054;-69
2021/08/22 11:20:47;;;;;;;8.63;2.63;;;;;;;19.32;76.02;100166.09;5010960;28;20038;-69
2021/08/22 11:23:17;;;;;;;9.95;2.80;;;;;;;18.77;81.73;100143.41;5013607;28;20050;-68
2021/08/22 11:25:57;;;;;;;7.68;2.67;;;;;;;18.62;88.40;100174.63;5009209;28;20116;-68
2021/08/22 11:28:24;;;;;;;9.18;3.03;;;;;;;18.24;90.29;100169.97;5006414;28;20042;-68